createdAt,value
2023-04-02T00:01:47.484Z,22.68
2023-04-02T00:04:22.592Z,22.61
2023-04-02T00:06:54.688Z,22.64
2023-04-02T00:09:31.339Z,22.65
2023-04-02T00:12:00.496Z,22.67
2023-04-02T00:14:36.805Z,22.65
2023-04-02T00:17:05.980Z,22.73
2023-04-02T00:19:53.007Z,22.70
2023-04-02T00:22:25.762Z,22.72
2023-04-02T00:24:54.706Z,22.75
2023-04-02T00:27:23.953Z,22.76
2023-04-02T00:29:54.139Z,22.75
2023-04-02T00:32:31.147Z,22.71
2023-04-02T00:34:59.805Z,22.72
2023-04-02T00:37:29.088Z,22.80
2023-04-02T00:40:07.477Z,22.79
2023-04-02T00:42:36.107Z,22.76
2023-04-02T00:45:05.300Z,22.80
2023-04-02T00:47:35.931Z,22.83
2023-04-02T00:50:14.690Z,22.84
2023-04-02T00:52:44.659Z,22.88
2023-04-02T00:55:36.961Z,22.88
2023-04-02T00:58:32.421Z,22.92
2023-04-02T01:01:19.329Z,22.97
2023-04-02T01:04:00.076Z,22.99
2023-04-02T01:06:31.260Z,22.97
2023-04-02T01:08:59.939Z,22.93
2023-04-02T01:11:35.893Z,22.93
2023-04-02T01:14:58.265Z,22.90
2023-04-02T01:18:03.645Z,22.92
2023-04-02T01:20:43.693Z,22.89
2023-04-02T01:23:52.856Z,22.86
2023-04-02T01:26:40.952Z,22.84
2023-04-02T01:29:13.094Z,22.82
2023-04-02T01:31:41.942Z,22.83
2023-04-02T01:34:12.773Z,22.84
2023-04-02T01:37:08.803Z,22.84
2023-04-02T01:40:31.549Z,22.83
2023-04-02T01:43:28.368Z,22.92
2023-04-02T01:46:00.449Z,22.94
2023-04-02T01:48:30.294Z,22.97
2023-04-02T01:50:59.992Z,22.95
2023-04-02T01:53:30.149Z,22.99
2023-04-02T01:56:00.964Z,22.98
2023-04-02T01:58:32.619Z,22.95
2023-04-02T02:01:20.357Z,22.97
2023-04-02T02:03:52.081Z,22.98
2023-04-02T02:06:20.957Z,22.93
2023-04-02T02:09:01.453Z,22.90
2023-04-02T02:11:30.782Z,22.90
2023-04-02T02:14:00.983Z,22.87
2023-04-02T02:16:41.930Z,22.85
2023-04-02T02:19:33.733Z,22.85
2023-04-02T02:22:08.291Z,22.87
2023-04-02T02:24:37.233Z,22.72
2023-04-02T02:27:23.025Z,22.67
2023-04-02T02:30:06.593Z,22.71
2023-04-02T02:32:35.306Z,22.70
2023-04-02T02:35:12.848Z,22.70
2023-04-02T02:37:44.144Z,22.69
2023-04-02T02:40:17.541Z,22.68
2023-04-02T02:42:52.891Z,22.74
2023-04-02T02:45:24.516Z,22.79
2023-04-02T02:47:52.919Z,22.76
2023-04-02T02:50:24.090Z,22.71
2023-04-02T02:52:55.198Z,22.66
2023-04-02T02:55:27.819Z,22.69
2023-04-02T02:58:13.682Z,22.71
2023-04-02T03:00:48.089Z,22.74
2023-04-02T03:03:24.309Z,22.70
2023-04-02T03:06:06.427Z,22.69
2023-04-02T03:08:40.382Z,22.67
2023-04-02T03:11:12.246Z,22.59
2023-04-02T03:13:42.219Z,22.60
2023-04-02T03:16:19.835Z,22.63
2023-04-02T03:19:09.696Z,22.65
2023-04-02T03:21:57.368Z,22.63
2023-04-02T03:24:47.809Z,22.60
2023-04-02T03:27:26.048Z,22.61
2023-04-02T03:30:30.986Z,22.59
2023-04-02T03:33:06.601Z,22.58
2023-04-02T03:35:43.364Z,22.60
2023-04-02T03:38:36.524Z,22.58
2023-04-02T03:41:14.864Z,22.65
2023-04-02T03:43:46.625Z,22.58
2023-04-02T03:46:40.531Z,22.57
2023-04-02T03:49:32.822Z,22.61
2023-04-02T03:52:15.440Z,22.61
2023-04-02T03:54:53.682Z,22.65
2023-04-02T03:57:34.263Z,22.68
2023-04-02T04:00:07.238Z,22.70
2023-04-02T04:02:55.186Z,22.68
2023-04-02T04:05:31.128Z,22.76
2023-04-02T04:08:08.365Z,22.82
2023-04-02T04:10:37.445Z,22.74
2023-04-02T04:13:09.609Z,22.74
2023-04-02T04:15:39.766Z,22.73
2023-04-02T04:18:24.329Z,22.70
2023-04-02T04:20:57.713Z,22.69
2023-04-02T04:23:33.242Z,22.65
2023-04-02T04:26:12.195Z,22.63
2023-04-02T04:28:47.664Z,22.64
2023-04-02T04:31:26.004Z,22.61
2023-04-02T04:34:03.202Z,22.59
2023-04-02T04:36:36.232Z,22.59
2023-04-02T04:39:14.745Z,22.67
2023-04-02T04:41:47.256Z,22.64
2023-04-02T04:44:29.282Z,22.64
2023-04-02T04:47:11.179Z,22.71
2023-04-02T04:49:57.432Z,22.73
2023-04-02T04:52:44.810Z,22.79
2023-04-02T04:55:23.327Z,22.84
2023-04-02T04:57:55.933Z,22.76
2023-04-02T05:00:35.939Z,22.77
2023-04-02T05:03:38.492Z,22.80
2023-04-02T05:06:27.356Z,22.92
2023-04-02T05:08:56.247Z,22.97
2023-04-02T05:11:34.662Z,22.96
2023-04-02T05:14:17.409Z,22.87
2023-04-02T05:17:00.868Z,22.86
2023-04-02T05:19:32.149Z,22.93
2023-04-02T05:22:14.187Z,22.91
2023-04-02T05:24:50.118Z,22.89
2023-04-02T05:27:24.725Z,22.89
2023-04-02T05:30:01.152Z,22.92
2023-04-02T05:32:32.370Z,22.98
2023-04-02T05:35:02.363Z,23.04
2023-04-02T05:37:33.150Z,23.03
2023-04-02T05:40:12.365Z,22.96
2023-04-02T05:42:44.175Z,22.92
2023-04-02T05:45:22.897Z,22.89
2023-04-02T05:47:53.875Z,22.89
2023-04-02T05:50:27.447Z,22.91
2023-04-02T05:53:04.296Z,22.96
2023-04-02T05:56:13.386Z,22.95
2023-04-02T05:58:58.285Z,22.99
2023-04-02T06:01:39.378Z,22.96
2023-04-02T06:04:51.594Z,22.96
2023-04-02T06:07:27.391Z,22.94
2023-04-02T06:10:23.528Z,22.95
2023-04-02T06:12:58.289Z,22.98
2023-04-02T06:15:28.322Z,22.88
2023-04-02T06:18:20.897Z,22.91
2023-04-02T06:20:50.636Z,22.89
2023-04-02T06:23:32.485Z,22.88
2023-04-02T06:26:34.049Z,22.94
2023-04-02T06:29:13.972Z,23.01
2023-04-02T06:31:56.390Z,22.98
2023-04-02T06:34:26.179Z,23.01
2023-04-02T06:37:03.590Z,23.06
2023-04-02T06:39:33.664Z,23.11
2023-04-02T06:42:12.549Z,23.13
2023-04-02T06:44:59.794Z,23.16
2023-04-02T06:47:49.407Z,23.11
2023-04-02T06:50:43.449Z,23.09
2023-04-02T06:53:34.879Z,23.14
2023-04-02T06:56:22.737Z,23.26
2023-04-02T06:58:52.270Z,23.25
2023-04-02T07:01:24.496Z,23.19
2023-04-02T07:03:53.840Z,23.23
2023-04-02T07:06:31.258Z,23.26
2023-04-02T07:09:01.860Z,23.22
2023-04-02T07:11:30.633Z,23.03
2023-04-02T07:14:01.603Z,23.18
2023-04-02T07:16:32.275Z,23.19
2023-04-02T07:19:01.553Z,22.87
2023-04-02T07:21:35.609Z,22.84
2023-04-02T07:24:04.001Z,22.84
2023-04-02T07:26:33.097Z,22.93
2023-04-02T07:29:01.576Z,22.96
2023-04-02T07:31:30.100Z,23.19
2023-04-02T07:34:00.337Z,23.21
2023-04-02T07:36:29.314Z,23.20
2023-04-02T07:38:57.869Z,23.08
2023-04-02T07:41:26.827Z,23.12
2023-04-02T07:43:56.076Z,23.21
2023-04-02T07:46:26.162Z,23.20
2023-04-02T07:48:54.835Z,23.22
2023-04-02T07:51:25.173Z,23.21
2023-04-02T07:53:57.450Z,23.28
2023-04-02T07:56:26.841Z,23.23
2023-04-02T07:58:55.139Z,23.15
2023-04-02T08:01:25.938Z,23.00
2023-04-02T08:03:57.514Z,22.97
2023-04-02T08:06:26.455Z,23.00
2023-04-02T08:08:56.391Z,23.00
2023-04-02T08:11:24.824Z,22.96
2023-04-02T08:13:54.670Z,22.94
2023-04-02T08:16:25.445Z,22.93
2023-04-02T08:18:54.452Z,22.97
2023-04-02T08:21:23.078Z,22.97
2023-04-02T08:23:51.568Z,22.98
2023-04-02T08:26:20.031Z,22.97
2023-04-02T08:28:48.511Z,22.96
2023-04-02T08:31:17.584Z,22.99
2023-04-02T08:33:46.419Z,23.01
2023-04-02T08:36:18.082Z,22.99
2023-04-02T08:38:46.832Z,23.04
2023-04-02T08:41:23.556Z,23.07
2023-04-02T08:44:04.499Z,23.13
2023-04-02T08:47:17.380Z,23.15
2023-04-02T08:49:51.621Z,23.15
2023-04-02T08:52:25.654Z,23.12
2023-04-02T08:54:56.635Z,23.08
2023-04-02T08:57:27.819Z,23.11
2023-04-02T09:00:20.555Z,23.11
2023-04-02T09:03:18.444Z,23.13
2023-04-02T09:05:47.029Z,23.14
2023-04-02T09:08:20.299Z,23.14
2023-04-02T09:10:58.973Z,23.14
2023-04-02T09:13:32.075Z,23.22
2023-04-02T09:16:11.574Z,23.27
2023-04-02T09:18:39.983Z,23.26
2023-04-02T09:21:28.407Z,23.20
2023-04-02T09:23:58.487Z,23.20
2023-04-02T09:26:30.138Z,23.17
2023-04-02T09:29:13.502Z,23.16
2023-04-02T09:31:44.108Z,23.09
2023-04-02T09:34:33.669Z,23.02
2023-04-02T09:37:15.481Z,23.03
2023-04-02T09:39:44.483Z,23.02
2023-04-02T09:42:34.291Z,23.02
2023-04-02T09:45:24.324Z,23.09
2023-04-02T09:47:54.428Z,23.22
2023-04-02T09:50:32.460Z,23.20
2023-04-02T09:53:35.922Z,23.19
2023-04-02T09:56:08.555Z,23.18
2023-04-02T09:58:37.708Z,23.15
2023-04-02T10:01:50.033Z,23.01
2023-04-02T10:04:46.114Z,22.97
2023-04-02T10:07:38.240Z,22.90
2023-04-02T10:10:19.221Z,22.85
2023-04-02T10:12:51.645Z,22.81
2023-04-02T10:15:32.437Z,22.78
2023-04-02T10:18:13.438Z,22.69
2023-04-02T10:20:50.439Z,22.57
2023-04-02T10:23:21.072Z,22.54
2023-04-02T10:26:15.896Z,22.47
2023-04-02T10:28:48.689Z,22.51
2023-04-02T10:31:22.724Z,22.58
2023-04-02T10:33:52.980Z,22.48
2023-04-02T10:37:49.876Z,21.41
2023-04-02T10:40:28.369Z,22.46
2023-04-02T10:42:56.891Z,22.34
2023-04-02T10:45:31.695Z,22.30
2023-04-02T10:48:04.858Z,22.29
2023-04-02T10:50:47.309Z,22.26
2023-04-02T10:53:21.570Z,22.17
2023-04-02T10:55:58.373Z,22.17
2023-04-02T10:58:30.672Z,22.15
2023-04-02T11:01:02.845Z,22.17
2023-04-02T11:03:37.166Z,22.19
2023-04-02T11:06:26.484Z,22.24
2023-04-02T11:08:58.781Z,22.24
2023-04-02T11:11:39.422Z,22.24
2023-04-02T11:14:14.202Z,22.20
2023-04-02T11:16:44.753Z,22.31
2023-04-02T11:19:19.478Z,22.26
2023-04-02T11:21:58.075Z,22.23
2023-04-02T11:24:34.343Z,22.32
2023-04-02T11:27:10.081Z,22.38
2023-04-02T11:29:42.683Z,22.46
2023-04-02T11:32:30.019Z,22.27
2023-04-02T11:35:06.668Z,22.32
2023-04-02T11:37:39.822Z,22.40
2023-04-02T11:40:11.879Z,22.47
2023-04-02T11:42:41.629Z,22.44
2023-04-02T11:45:29.049Z,22.38
2023-04-02T11:48:00.266Z,22.43
2023-04-02T11:50:34.873Z,22.48
2023-04-02T11:53:12.381Z,22.49
2023-04-02T11:55:41.582Z,22.52
2023-04-02T11:58:21.298Z,22.55
2023-04-02T12:01:08.449Z,22.52
2023-04-02T12:04:10.671Z,22.44
2023-04-02T12:07:00.500Z,22.58
2023-04-02T12:09:29.427Z,22.52
2023-04-02T12:11:59.875Z,22.45
2023-04-02T12:14:47.891Z,22.39
2023-04-02T12:17:22.534Z,22.37
2023-04-02T12:19:52.780Z,22.30
2023-04-02T12:22:23.597Z,22.27
2023-04-02T12:25:07.302Z,22.21
2023-04-02T12:27:38.324Z,22.21
2023-04-02T12:30:12.613Z,22.21
2023-04-02T12:32:41.232Z,22.20
2023-04-02T12:35:25.279Z,22.14
2023-04-02T12:37:53.937Z,22.10
2023-04-02T12:40:22.681Z,22.10
2023-04-02T12:42:51.746Z,22.10
2023-04-02T12:45:24.094Z,22.09
2023-04-02T12:47:53.612Z,22.10
2023-04-02T12:50:22.444Z,22.12
2023-04-02T12:52:53.347Z,22.17
2023-04-02T12:55:23.839Z,22.19
2023-04-02T12:57:58.905Z,22.39
2023-04-02T13:00:31.360Z,22.47
2023-04-02T13:03:06.643Z,22.54
2023-04-02T13:05:44.459Z,22.58
2023-04-02T13:08:30.852Z,22.56
2023-04-02T13:11:03.263Z,22.58
2023-04-02T13:13:36.718Z,22.56
2023-04-02T13:16:17.646Z,22.54
2023-04-02T13:18:47.344Z,22.57
2023-04-02T13:21:19.770Z,22.61
2023-04-02T13:23:48.596Z,22.52
2023-04-02T13:26:24.854Z,22.48
2023-04-02T13:28:59.104Z,22.41
2023-04-02T13:31:28.851Z,22.41
2023-04-02T13:33:57.784Z,22.36
2023-04-02T13:36:26.773Z,22.32
2023-04-02T13:38:55.898Z,22.31
2023-04-02T13:41:26.578Z,22.34
2023-04-02T13:43:55.679Z,22.34
2023-04-02T13:46:26.618Z,22.28
2023-04-02T13:48:58.098Z,22.19
2023-04-02T13:51:38.541Z,22.28
2023-04-02T13:54:11.961Z,22.30
2023-04-02T13:56:41.510Z,22.29
2023-04-02T13:59:10.152Z,22.28
2023-04-02T14:01:40.912Z,22.21
2023-04-02T14:04:10.808Z,22.14
2023-04-02T14:06:49.680Z,22.17
2023-04-02T14:09:39.715Z,22.22
2023-04-02T14:12:20.810Z,22.27
2023-04-02T14:15:02.678Z,22.21
2023-04-02T14:17:43.697Z,22.15
2023-04-02T14:20:18.185Z,22.12
2023-04-02T14:22:49.888Z,22.16
2023-04-02T14:25:53.628Z,22.11
2023-04-02T14:28:23.954Z,22.19
2023-04-02T14:30:55.546Z,22.20
2023-04-02T14:33:39.693Z,22.20
2023-04-02T14:36:18.234Z,22.20
2023-04-02T14:38:59.332Z,22.20
2023-04-02T14:41:43.192Z,22.14
2023-04-02T14:44:11.481Z,22.15
2023-04-02T14:46:41.718Z,22.14
2023-04-02T14:49:17.766Z,22.08
2023-04-02T14:51:53.087Z,22.03
2023-04-02T14:54:38.039Z,22.01
2023-04-02T14:57:23.304Z,21.92
2023-04-02T15:00:21.192Z,21.88
2023-04-02T15:02:54.174Z,21.95
2023-04-02T15:05:24.826Z,21.90
2023-04-02T15:08:06.842Z,21.83
2023-04-02T15:10:45.703Z,21.86
2023-04-02T15:13:20.089Z,21.84
2023-04-02T15:16:10.208Z,21.89
2023-04-02T15:18:39.910Z,21.90
2023-04-02T15:21:20.595Z,21.88
2023-04-02T15:24:10.463Z,21.90
2023-04-02T15:27:18.257Z,21.81
2023-04-02T15:30:14.965Z,21.84
2023-04-02T15:32:49.204Z,21.87
2023-04-02T15:35:24.447Z,21.83
2023-04-02T15:38:11.341Z,21.83
2023-04-02T15:40:59.532Z,21.86
2023-04-02T15:43:54.744Z,21.91
2023-04-02T15:46:36.819Z,21.90
2023-04-02T15:49:05.761Z,21.84
2023-04-02T15:51:58.416Z,21.77
2023-04-02T15:54:40.516Z,21.82
2023-04-02T15:57:21.620Z,21.81
2023-04-02T15:59:57.489Z,21.85
2023-04-02T16:02:31.881Z,21.82
2023-04-02T16:05:25.285Z,21.84
2023-04-02T16:08:31.708Z,21.89
2023-04-02T16:11:00.202Z,21.94
2023-04-02T16:13:35.962Z,21.92
2023-04-02T16:16:16.106Z,21.91
2023-04-02T16:19:22.888Z,21.93
2023-04-02T16:22:12.322Z,21.96
2023-04-02T16:24:40.732Z,21.97
2023-04-02T16:27:32.279Z,21.90
2023-04-02T16:30:28.957Z,21.93
2023-04-02T16:32:58.427Z,21.88
2023-04-02T16:38:14.878Z,21.90
2023-04-02T16:41:09.036Z,21.88
2023-04-02T16:43:43.819Z,21.84
2023-04-02T16:46:35.833Z,21.81
2023-04-02T16:49:35.129Z,21.82
2023-04-02T16:52:28.274Z,21.74
2023-04-02T16:55:23.732Z,21.75
2023-04-02T16:58:20.540Z,21.74
2023-04-02T17:00:56.421Z,21.75
2023-04-02T17:03:46.151Z,21.73
2023-04-02T17:06:26.578Z,21.76
2023-04-02T17:09:01.479Z,21.75
2023-04-02T17:11:42.297Z,21.70
2023-04-02T17:14:29.790Z,21.65
2023-04-02T17:17:01.670Z,21.64
2023-04-02T17:19:31.376Z,21.70
2023-04-02T17:22:01.994Z,21.56
2023-04-02T17:24:41.860Z,21.51
2023-04-02T17:27:32.806Z,21.51
2023-04-02T17:30:36.455Z,21.47
2023-04-02T17:33:12.261Z,21.49
2023-04-02T17:35:48.948Z,21.43
2023-04-02T17:38:43.633Z,21.37
2023-04-02T17:41:23.766Z,21.39
2023-04-02T17:44:22.060Z,21.41
2023-04-02T17:46:56.162Z,21.46
2023-04-02T17:49:40.476Z,21.46
2023-04-02T17:52:32.194Z,21.44
2023-04-02T17:55:22.823Z,21.44
2023-04-02T17:58:09.810Z,21.51
2023-04-02T18:00:56.367Z,21.55
2023-04-02T18:03:44.257Z,21.52
2023-04-02T18:06:33.151Z,21.54
2023-04-02T18:09:01.510Z,21.52
2023-04-02T18:11:39.130Z,21.46
2023-04-02T18:14:26.273Z,21.33
2023-04-02T18:17:16.646Z,21.29
2023-04-02T18:19:57.698Z,21.29
2023-04-02T18:22:42.492Z,21.26
2023-04-02T18:25:25.643Z,21.27
2023-04-02T18:28:05.111Z,21.23
2023-04-02T18:30:56.110Z,21.21
2023-04-02T18:33:31.923Z,21.25
2023-04-02T18:36:19.810Z,21.28
2023-04-02T18:38:54.747Z,21.20
2023-04-02T18:41:54.974Z,21.18
2023-04-02T18:44:31.137Z,21.21
2023-04-02T18:47:18.796Z,21.22
2023-04-02T18:49:48.764Z,21.29
2023-04-02T18:52:17.949Z,21.25
2023-04-02T18:55:01.583Z,21.12
2023-04-02T18:57:32.041Z,21.04
2023-04-02T19:00:05.994Z,20.99
2023-04-02T19:02:47.718Z,20.98
2023-04-02T19:05:31.395Z,20.97
2023-04-02T19:08:14.583Z,20.91
2023-04-02T19:10:50.110Z,20.73
2023-04-02T19:13:23.402Z,20.66
2023-04-02T19:16:24.892Z,20.65
2023-04-02T19:19:09.190Z,20.67
2023-04-02T19:22:01.685Z,20.63
2023-04-02T19:24:48.714Z,20.62
2023-04-02T19:27:27.405Z,20.56
2023-04-02T19:30:17.877Z,20.57
2023-04-02T19:32:54.017Z,20.55
2023-04-02T19:35:32.407Z,20.52
2023-04-02T19:38:14.971Z,20.55
2023-04-02T19:41:08.618Z,20.56
2023-04-02T19:43:36.947Z,20.59
2023-04-02T19:46:05.589Z,20.49
2023-04-02T19:49:03.153Z,20.48
2023-04-02T19:51:31.641Z,20.56
2023-04-02T19:54:01.140Z,20.50
2023-04-02T19:56:30.190Z,20.57
2023-04-02T19:59:02.322Z,20.61
2023-04-02T20:01:33.726Z,20.58
2023-04-02T20:04:03.905Z,20.52
2023-04-02T20:06:33.283Z,20.51
2023-04-02T20:09:02.486Z,20.47
2023-04-02T20:11:31.212Z,20.40
2023-04-02T20:14:06.863Z,20.32
2023-04-02T20:16:37.003Z,20.36
2023-04-02T20:19:05.670Z,20.37
2023-04-02T20:21:38.553Z,20.37
2023-04-02T20:24:07.818Z,20.33
2023-04-02T20:26:36.550Z,20.33
2023-04-02T20:29:06.615Z,20.34
2023-04-02T20:31:35.590Z,20.30
2023-04-02T20:34:05.806Z,20.28
2023-04-02T20:36:37.802Z,20.31
2023-04-02T20:39:09.266Z,20.32
2023-04-02T20:41:37.492Z,20.36
2023-04-02T20:44:06.348Z,20.39
2023-04-02T20:46:37.096Z,20.38
2023-04-02T20:49:05.359Z,20.35
2023-04-02T20:51:34.579Z,20.38
2023-04-02T20:54:03.481Z,20.39
2023-04-02T20:56:37.855Z,20.38
2023-04-02T20:59:06.262Z,20.35
2023-04-02T21:01:34.600Z,20.30
2023-04-02T21:04:03.572Z,20.29
2023-04-02T21:06:34.410Z,20.19
2023-04-02T21:09:05.766Z,20.27
2023-04-02T21:11:37.415Z,20.29
2023-04-02T21:14:06.154Z,20.35
2023-04-02T21:16:34.893Z,20.35
2023-04-02T21:19:05.434Z,20.33
2023-04-02T21:21:34.514Z,20.33
2023-04-02T21:24:05.961Z,20.34
2023-04-02T21:26:36.688Z,20.34
2023-04-02T21:29:05.609Z,20.30
2023-04-02T21:31:35.914Z,20.26
2023-04-02T21:34:04.481Z,20.31
2023-04-02T21:36:35.297Z,20.38
2023-04-02T21:39:09.639Z,20.32
2023-04-02T21:41:39.694Z,20.36
2023-04-02T21:44:08.833Z,20.32
2023-04-02T21:46:39.053Z,20.36
2023-04-02T21:49:08.534Z,20.29
2023-04-02T21:51:37.386Z,20.29
2023-04-02T21:54:09.557Z,20.25
2023-04-02T21:56:42.181Z,20.28
2023-04-02T21:59:11.746Z,20.27
2023-04-02T22:01:41.961Z,20.27
2023-04-02T22:04:14.724Z,20.27
2023-04-02T22:06:43.666Z,20.30
2023-04-02T22:09:17.250Z,20.31
2023-04-02T22:11:47.476Z,20.27
2023-04-02T22:14:15.940Z,20.29
2023-04-02T22:16:44.740Z,20.33
2023-04-02T22:19:15.789Z,20.34
2023-04-02T22:21:44.202Z,20.33
2023-04-02T22:24:19.098Z,20.26
2023-04-02T22:26:48.012Z,20.27
2023-04-02T22:29:16.801Z,20.28
2023-04-02T22:31:45.789Z,20.26
2023-04-02T22:34:14.865Z,20.25
2023-04-02T22:36:43.210Z,20.21
2023-04-02T22:39:12.625Z,20.20
2023-04-02T22:41:41.201Z,20.20
2023-04-02T22:44:13.575Z,20.24
2023-04-02T22:46:41.997Z,20.20
2023-04-02T22:49:11.838Z,20.18
2023-04-02T22:53:46.078Z,18.74
2023-04-02T22:56:16.332Z,19.98
2023-04-02T22:58:44.713Z,20.01
2023-04-02T23:01:14.235Z,19.93
2023-04-02T23:03:43.162Z,19.90
2023-04-02T23:06:16.656Z,19.89
2023-04-02T23:08:45.686Z,19.89
2023-04-02T23:11:15.169Z,19.93
2023-04-02T23:13:44.625Z,19.98
2023-04-02T23:16:13.469Z,19.94
2023-04-02T23:18:48.106Z,19.89
2023-04-02T23:21:17.754Z,19.82
2023-04-02T23:23:46.511Z,19.83
2023-04-02T23:26:16.272Z,19.84
2023-04-02T23:28:44.717Z,19.74
2023-04-02T23:31:18.700Z,19.77
2023-04-02T23:33:47.010Z,19.79
2023-04-02T23:36:25.644Z,19.74
2023-04-02T23:38:55.786Z,19.68
2023-04-02T23:41:24.975Z,19.62
2023-04-02T23:43:53.318Z,19.62
2023-04-02T23:46:22.016Z,19.67
2023-04-02T23:48:52.121Z,19.64
2023-04-02T23:51:21.549Z,19.66
2023-04-02T23:53:50.858Z,19.58
2023-04-02T23:56:21.928Z,19.51
2023-04-02T23:58:51.062Z,19.52
